createdAt,value
2022-08-29T00:01:42.545Z,100893.59
2022-08-29T00:04:12.186Z,100888.16
2022-08-29T00:06:40.796Z,100899.34
2022-08-29T00:09:13.836Z,100886.56
2022-08-29T00:11:45.227Z,100888.84
2022-08-29T00:14:23.494Z,100891.56
2022-08-29T00:16:52.691Z,100894.28
2022-08-29T00:19:22.260Z,100891.91
2022-08-29T00:21:50.591Z,100903.72
2022-08-29T00:24:18.711Z,100904.56
2022-08-29T00:26:46.959Z,100909.97
2022-08-29T00:29:17.865Z,100911.19
2022-08-29T00:31:46.100Z,100900.88
2022-08-29T00:34:14.142Z,100900.03
2022-08-29T00:36:49.148Z,100904.16
2022-08-29T00:39:18.999Z,100904.00
2022-08-29T00:41:51.692Z,100900.88
2022-08-29T00:44:20.142Z,100899.63
2022-08-29T00:46:53.599Z,100910.38
2022-08-29T00:49:30.108Z,100912.25
2022-08-29T00:52:01.789Z,100908.94
2022-08-29T00:54:31.116Z,100895.50
2022-08-29T00:57:00.302Z,100901.31
2022-08-29T00:59:33.154Z,100902.34
2022-08-29T01:02:20.898Z,100903.13
2022-08-29T01:05:27.382Z,100906.03
2022-08-29T01:08:33.048Z,100910.34
2022-08-29T01:11:56.970Z,100914.69
2022-08-29T01:15:02.660Z,100910.16
2022-08-29T01:18:10.060Z,100914.53
2022-08-29T01:21:15.234Z,100919.06
2022-08-29T01:24:21.106Z,100913.72
2022-08-29T01:27:27.074Z,100911.22
2022-08-29T01:30:33.556Z,100913.91
2022-08-29T01:33:39.580Z,100913.28
2022-08-29T01:36:45.934Z,100923.16
2022-08-29T01:39:54.541Z,100917.53
2022-08-29T01:43:00.485Z,100919.22
2022-08-29T01:46:06.464Z,100926.88
2022-08-29T01:49:18.521Z,100929.78
2022-08-29T01:52:24.204Z,100926.09
2022-08-29T01:55:31.009Z,100927.81
2022-08-29T01:58:36.864Z,100929.03
2022-08-29T02:01:46.283Z,100933.56
2022-08-29T02:04:53.117Z,100939.19
2022-08-29T02:08:00.791Z,100937.56
2022-08-29T02:11:10.202Z,100931.34
2022-08-29T02:14:19.217Z,100932.59
2022-08-29T02:17:25.664Z,100939.66
2022-08-29T02:20:37.699Z,100940.03
2022-08-29T02:23:42.882Z,100930.50
2022-08-29T02:26:48.736Z,100936.25
2022-08-29T02:29:54.140Z,100927.72
2022-08-29T02:33:00.211Z,100926.59
2022-08-29T02:36:15.773Z,100928.25
2022-08-29T02:42:55.986Z,100927.38
2022-08-29T02:46:02.575Z,100923.31
2022-08-29T02:49:09.709Z,100927.03
2022-08-29T02:52:22.876Z,100921.22
2022-08-29T02:55:28.446Z,100923.31
2022-08-29T02:58:46.376Z,100923.72
2022-08-29T03:01:51.934Z,100929.94
2022-08-29T03:05:00.055Z,100942.16
2022-08-29T03:08:06.143Z,100923.13
2022-08-29T03:11:11.852Z,100929.94
2022-08-29T03:14:20.903Z,100923.13
2022-08-29T03:17:26.447Z,100932.41
2022-08-29T03:20:35.548Z,100932.41
2022-08-29T03:23:41.033Z,100927.84
2022-08-29T03:26:46.395Z,100927.38
2022-08-29T03:30:01.755Z,100923.31
2022-08-29T03:33:11.151Z,100927.25
2022-08-29T03:36:27.060Z,100924.13
2022-08-29T03:39:34.087Z,100942.56
2022-08-29T03:42:39.689Z,100938.84
2022-08-29T03:45:45.293Z,100931.00
2022-08-29T03:48:50.994Z,100948.19
2022-08-29T03:51:57.344Z,100952.53
2022-08-29T03:55:04.555Z,100953.34
2022-08-29T03:58:11.714Z,100950.50
2022-08-29T04:01:19.434Z,100947.59
2022-08-29T04:04:42.949Z,100967.09
2022-08-29T04:07:51.342Z,100958.44
2022-08-29T04:10:57.046Z,100964.88
2022-08-29T04:14:04.691Z,100958.28
2022-08-29T04:17:12.616Z,100961.78
2022-08-29T04:20:21.657Z,100968.78
2022-08-29T04:23:39.973Z,100967.50
2022-08-29T04:26:48.569Z,100972.22
2022-08-29T04:30:26.134Z,100967.88
2022-08-29T04:33:32.031Z,100976.34
2022-08-29T04:36:37.755Z,100973.84
2022-08-29T04:39:43.657Z,100971.38
2022-08-29T04:42:49.204Z,100976.09
2022-08-29T04:45:55.332Z,100975.28
2022-08-29T04:49:04.214Z,100970.53
2022-08-29T04:52:21.673Z,100975.28
2022-08-29T04:55:28.214Z,100975.91
2022-08-29T04:58:37.184Z,100986.25
2022-08-29T05:01:49.149Z,100982.53
2022-08-29T05:04:56.870Z,100981.09
2022-08-29T05:08:02.655Z,100993.28
2022-08-29T05:11:10.093Z,100985.84
2022-08-29T05:14:15.857Z,100992.25
2022-08-29T05:17:28.050Z,100990.63
2022-08-29T05:20:34.158Z,100988.56
2022-08-29T05:23:40.285Z,101000.56
2022-08-29T05:26:46.764Z,100996.44
2022-08-29T05:29:52.325Z,100993.94
2022-08-29T05:32:58.442Z,100996.63
2022-08-29T05:36:06.741Z,101006.16
2022-08-29T05:39:15.980Z,100992.72
2022-08-29T05:42:23.440Z,101013.44
2022-08-29T05:45:29.295Z,101012.81
2022-08-29T05:48:44.841Z,101016.75
2022-08-29T05:51:58.834Z,101005.19
2022-08-29T05:55:06.070Z,101016.16
2022-08-29T05:58:12.620Z,101007.66
2022-08-29T06:01:18.790Z,101018.41
2022-08-29T06:04:27.605Z,101016.78
2022-08-29T06:07:35.452Z,101010.56
2022-08-29T06:10:41.091Z,101008.09
2022-08-29T06:13:47.129Z,101004.56
2022-08-29T06:16:53.893Z,101019.25
2022-08-29T06:20:00.079Z,101013.91
2022-08-29T06:23:05.776Z,101014.09
2022-08-29T06:26:12.176Z,101017.00
2022-08-29T06:29:18.263Z,101013.28
2022-08-29T06:32:24.570Z,101018.25
2022-08-29T06:35:30.826Z,101014.69
2022-08-29T06:38:39.167Z,101027.13
2022-08-29T06:41:48.561Z,101027.53
2022-08-29T06:44:54.634Z,101023.59
2022-08-29T06:48:00.351Z,101027.13
2022-08-29T06:51:06.079Z,101022.56
2022-08-29T06:54:11.727Z,101029.78
2022-08-29T06:57:19.502Z,101028.97
2022-08-29T07:00:26.054Z,101029.78
2022-08-29T07:03:32.941Z,101039.09
2022-08-29T07:06:39.217Z,101026.03
2022-08-29T07:09:45.794Z,101033.25
2022-08-29T07:12:52.654Z,101025.97
2022-08-29T07:15:58.972Z,101030.72
2022-08-29T07:19:05.056Z,101036.50
2022-08-29T07:22:11.217Z,101035.25
2022-08-29T07:25:17.130Z,101045.16
2022-08-29T07:28:22.767Z,101041.03
2022-08-29T07:31:31.202Z,101035.81
2022-08-29T07:34:46.529Z,101048.00
2022-08-29T07:37:53.030Z,101044.06
2022-08-29T07:40:58.990Z,101053.59
2022-08-29T07:44:06.065Z,101055.47
2022-08-29T07:47:12.425Z,101057.72
2022-08-29T07:50:19.816Z,101069.28
2022-08-29T07:53:26.086Z,101065.34
2022-08-29T07:56:37.215Z,101069.47
2022-08-29T07:59:43.912Z,101072.34
2022-08-29T08:02:51.756Z,101075.00
2022-08-29T08:05:58.811Z,101069.75
2022-08-29T08:09:07.284Z,101074.66
2022-08-29T08:12:13.631Z,101071.75
2022-08-29T08:15:22.037Z,101069.19
2022-08-29T08:18:29.971Z,101074.38
2022-08-29T08:21:38.241Z,101075.22
2022-08-29T08:24:55.023Z,101080.00
2022-08-29T08:28:00.641Z,101085.16
2022-08-29T08:31:06.773Z,101084.44
2022-08-29T08:34:17.583Z,101081.47
2022-08-29T08:37:27.948Z,101087.81
2022-08-29T08:40:33.759Z,101085.81
2022-08-29T08:43:39.424Z,101086.94
2022-08-29T08:46:45.116Z,101083.28
2022-08-29T08:49:56.175Z,101096.66
2022-08-29T08:53:01.919Z,101100.78
2022-08-29T08:56:07.820Z,101093.59
2022-08-29T08:59:13.884Z,101095.88
2022-08-29T09:02:20.782Z,101096.63
2022-08-29T09:05:28.730Z,101099.69
2022-08-29T09:08:34.638Z,101105.97
2022-08-29T09:12:01.443Z,101121.94
2022-08-29T09:15:07.564Z,101102.06
2022-08-29T09:18:23.384Z,101105.75
2022-08-29T09:21:46.454Z,101106.72
2022-08-29T09:25:00.361Z,101109.22
2022-08-29T09:28:06.337Z,101102.84
2022-08-29T09:31:12.213Z,101106.88
2022-08-29T09:34:18.180Z,101106.88
2022-08-29T09:37:24.413Z,101111.56
2022-08-29T09:40:29.980Z,101108.75
2022-08-29T09:43:36.477Z,101104.97
2022-08-29T09:46:42.999Z,101110.41
2022-08-29T09:49:48.243Z,101114.75
2022-08-29T09:52:59.627Z,101116.38
2022-08-29T09:56:06.811Z,101120.19
2022-08-29T09:59:13.811Z,101114.25
2022-08-29T10:02:21.441Z,101119.22
2022-08-29T10:05:27.556Z,101116.28
2022-08-29T10:08:37.066Z,101117.69
2022-08-29T10:12:00.701Z,101112.66
2022-08-29T10:15:06.298Z,101118.38
2022-08-29T10:18:25.226Z,101112.50
2022-08-29T10:21:31.243Z,101109.72
2022-08-29T10:24:37.049Z,101112.91
2022-08-29T10:27:43.536Z,101114.75
2022-08-29T10:30:49.691Z,101119.59
2022-08-29T10:33:55.407Z,101113.22
2022-08-29T10:37:03.798Z,101116.06
2022-08-29T10:40:10.160Z,101112.84
2022-08-29T10:43:22.349Z,101112.28
2022-08-29T10:46:28.258Z,101114.88
2022-08-29T10:49:33.708Z,101114.16
2022-08-29T10:52:39.586Z,101116.75
2022-08-29T10:55:45.110Z,101121.81
2022-08-29T10:58:50.792Z,101129.13
2022-08-29T11:01:56.543Z,101127.81
2022-08-29T11:05:01.972Z,101130.66
2022-08-29T11:08:08.899Z,101132.78
2022-08-29T11:11:17.012Z,101126.28
2022-08-29T11:14:37.505Z,101130.75
2022-08-29T11:17:43.510Z,101134.66
2022-08-29T11:20:49.290Z,101123.81
2022-08-29T11:23:55.708Z,101128.03
2022-08-29T11:27:03.303Z,101131.53
2022-08-29T11:30:26.283Z,101128.84
2022-08-29T11:33:34.455Z,101126.59
2022-08-29T11:36:40.862Z,101129.78
2022-08-29T11:39:46.968Z,101136.53
2022-08-29T11:42:56.298Z,101138.88
2022-08-29T11:46:02.014Z,101138.06
2022-08-29T11:49:14.072Z,101135.63
2022-08-29T11:52:22.381Z,101132.09
2022-08-29T11:55:28.503Z,101132.44
2022-08-29T11:58:36.293Z,101137.41
2022-08-29T12:01:42.751Z,101141.63
2022-08-29T12:04:54.217Z,101138.22
2022-08-29T12:08:02.907Z,101145.25
2022-08-29T12:11:12.666Z,101144.19
2022-08-29T12:14:22.241Z,101137.59
2022-08-29T12:17:51.373Z,101144.66
2022-08-29T12:20:59.996Z,101161.44
2022-08-29T12:24:06.772Z,101157.63
2022-08-29T12:27:15.773Z,101152.56
2022-08-29T12:30:29.953Z,101150.81
2022-08-29T12:33:36.697Z,101150.47
2022-08-29T12:36:52.549Z,101148.66
2022-08-29T12:39:59.607Z,101164.00
2022-08-29T12:43:07.846Z,101158.00
2022-08-29T12:46:15.416Z,101152.13
2022-08-29T12:49:22.193Z,101158.97
2022-08-29T12:52:30.355Z,101151.66
2022-08-29T12:55:55.695Z,101152.34
2022-08-29T12:59:02.573Z,101156.91
2022-08-29T13:02:10.170Z,101153.41
2022-08-29T13:05:28.325Z,101170.13
2022-08-29T13:08:40.237Z,101157.50
2022-08-29T13:11:55.614Z,101168.81
2022-08-29T13:15:18.674Z,101163.59
2022-08-29T13:18:25.354Z,101175.16
2022-08-29T13:21:36.632Z,101169.63
2022-08-29T13:24:42.760Z,101157.78
2022-08-29T13:27:50.909Z,101161.91
2022-08-29T13:31:23.611Z,101155.75
2022-08-29T13:34:45.819Z,101172.63
2022-08-29T13:38:01.151Z,101161.19
2022-08-29T13:41:07.111Z,101161.75
2022-08-29T13:44:22.363Z,101164.31
2022-08-29T13:47:38.616Z,101162.47
2022-08-29T13:50:57.307Z,101152.97
2022-08-29T13:54:13.633Z,101155.75
2022-08-29T13:57:34.122Z,101153.09
2022-08-29T14:00:52.370Z,101155.41
2022-08-29T14:04:41.209Z,101160.00
2022-08-29T14:07:59.359Z,101163.16
2022-08-29T14:11:11.410Z,101144.56
2022-08-29T14:14:21.561Z,101141.69
2022-08-29T14:17:29.495Z,101143.94
2022-08-29T14:20:39.165Z,101150.53
2022-08-29T14:23:45.640Z,101151.00
2022-08-29T14:27:01.740Z,101148.13
2022-08-29T14:30:08.743Z,101143.66
2022-08-29T14:33:20.119Z,101138.03
2022-08-29T14:36:27.427Z,101142.59
2022-08-29T14:39:39.364Z,101146.72
2022-08-29T14:42:46.945Z,101140.13
2022-08-29T14:45:54.647Z,101140.41
2022-08-29T14:49:27.143Z,101143.94
2022-08-29T14:52:36.738Z,101141.81
2022-08-29T14:55:44.554Z,101147.19
2022-08-29T14:58:52.399Z,101148.25
2022-08-29T15:02:00.512Z,101153.53
2022-08-29T15:05:46.855Z,101146.03
2022-08-29T15:08:57.326Z,101153.81
2022-08-29T15:12:05.822Z,101151.22
2022-08-29T15:15:15.256Z,101149.72
2022-08-29T15:18:59.502Z,101146.59
2022-08-29T15:21:53.583Z,101144.06
2022-08-29T15:25:04.879Z,101152.34
2022-08-29T15:28:13.301Z,101149.94
2022-08-29T15:31:19.431Z,101146.56
2022-08-29T15:34:30.291Z,101153.06
2022-08-29T15:37:39.872Z,101156.34
2022-08-29T15:40:47.579Z,101151.25
2022-08-29T15:43:54.115Z,101157.81
2022-08-29T15:47:04.676Z,101156.44
2022-08-29T15:50:16.446Z,101158.69
2022-08-29T15:53:22.684Z,101165.47
2022-08-29T15:56:38.703Z,101150.22
2022-08-29T16:00:00.724Z,101165.63
2022-08-29T16:03:08.714Z,101160.13
2022-08-29T16:06:16.906Z,101153.75
2022-08-29T16:09:24.345Z,101159.06
2022-08-29T16:12:31.739Z,101161.44
2022-08-29T16:15:39.024Z,101160.00
2022-08-29T16:18:45.612Z,101163.28
2022-08-29T16:21:51.766Z,101155.03
2022-08-29T16:25:01.134Z,101154.97
2022-08-29T16:28:10.685Z,101150.69
2022-08-29T16:31:17.090Z,101153.41
2022-08-29T16:34:24.646Z,101160.69
2022-08-29T16:37:33.695Z,101146.75
2022-08-29T16:40:46.604Z,101153.06
2022-08-29T16:43:58.614Z,101164.28
2022-08-29T16:47:05.326Z,101154.72
2022-08-29T16:50:14.278Z,101162.94
2022-08-29T16:53:28.307Z,101161.25
2022-08-29T16:56:42.259Z,101169.38
2022-08-29T16:59:47.962Z,101169.66
2022-08-29T17:02:54.364Z,101169.84
2022-08-29T17:06:00.716Z,101172.97
2022-08-29T17:09:08.717Z,101166.25
2022-08-29T17:12:58.223Z,101161.88
2022-08-29T17:16:01.563Z,101171.69
2022-08-29T17:19:08.168Z,101177.72
2022-08-29T17:22:16.651Z,101177.63
2022-08-29T17:25:32.801Z,101177.94
2022-08-29T17:28:40.187Z,101179.09
2022-08-29T17:31:53.848Z,101186.03
2022-08-29T17:35:04.535Z,101183.28
2022-08-29T17:38:11.177Z,101181.16
2022-08-29T17:41:17.711Z,101182.44
2022-08-29T17:44:24.296Z,101179.28
2022-08-29T17:50:50.399Z,101191.81
2022-08-29T17:53:56.628Z,101191.94
2022-08-29T17:57:04.094Z,101176.34
2022-08-29T18:00:09.758Z,101185.47
2022-08-29T18:03:17.400Z,101194.41
2022-08-29T18:06:23.925Z,101187.81
2022-08-29T18:09:32.901Z,101192.19
2022-08-29T18:12:43.345Z,101183.84
2022-08-29T18:15:54.321Z,101188.22
2022-08-29T18:19:01.666Z,101181.28
2022-08-29T18:22:10.845Z,101187.78
2022-08-29T18:25:22.388Z,101199.72
2022-08-29T18:28:30.130Z,101198.66
2022-08-29T18:31:36.969Z,101208.25
2022-08-29T18:34:44.260Z,101203.78
2022-08-29T18:37:57.462Z,101199.50
2022-08-29T18:41:04.133Z,101211.59
2022-08-29T18:44:26.013Z,101221.19
2022-08-29T18:47:31.856Z,101219.19
2022-08-29T18:50:39.604Z,101220.50
2022-08-29T18:53:47.381Z,101225.69
2022-08-29T18:56:54.290Z,101226.75
2022-08-29T19:00:00.836Z,101232.34
2022-08-29T19:03:07.478Z,101227.00
2022-08-29T19:06:14.059Z,101224.94
2022-08-29T19:09:20.648Z,101230.16
2022-08-29T19:12:27.279Z,101231.19
2022-08-29T19:15:59.767Z,101208.22
2022-08-29T19:19:13.548Z,101233.50
2022-08-29T19:22:23.289Z,101236.25
2022-08-29T19:25:30.072Z,101231.66
2022-08-29T19:31:52.107Z,101236.25
2022-08-29T19:34:57.843Z,101244.56
2022-08-29T19:38:04.951Z,101244.34
2022-08-29T19:41:11.144Z,101244.16
2022-08-29T19:44:17.923Z,101250.97
2022-08-29T19:47:23.973Z,101244.13
2022-08-29T19:50:29.779Z,101245.38
2022-08-29T19:53:44.357Z,101251.00
2022-08-29T19:56:51.514Z,101249.53
2022-08-29T19:59:58.186Z,101254.28
2022-08-29T20:03:05.433Z,101252.63
2022-08-29T20:06:11.968Z,101256.34
2022-08-29T20:12:26.137Z,101261.47
2022-08-29T20:15:36.631Z,101270.00
2022-08-29T20:18:43.040Z,101266.25
2022-08-29T20:21:50.927Z,101261.47
2022-08-29T20:24:58.929Z,101266.66
2022-08-29T20:28:08.473Z,101260.66
2022-08-29T20:31:24.765Z,101273.44
2022-08-29T20:34:36.239Z,101268.06
2022-08-29T20:37:41.075Z,101266.75
2022-08-29T20:40:48.135Z,101269.81
2022-08-29T20:43:54.046Z,101266.50
2022-08-29T20:47:00.326Z,101280.31
2022-08-29T20:50:09.501Z,101285.84
2022-08-29T20:53:32.410Z,101283.53
2022-08-29T20:56:38.901Z,101294.22
2022-08-29T20:59:45.941Z,101290.69
2022-08-29T21:03:09.431Z,101294.34
2022-08-29T21:06:15.384Z,101295.09
2022-08-29T21:09:26.296Z,101298.16
2022-08-29T21:12:35.272Z,101304.28
2022-08-29T21:15:42.518Z,101312.50
2022-08-29T21:18:48.948Z,101311.22
2022-08-29T21:21:55.596Z,101317.34
2022-08-29T21:25:02.225Z,101322.50
2022-08-29T21:28:09.372Z,101317.50
2022-08-29T21:31:17.495Z,101313.53
2022-08-29T21:34:23.439Z,101319.91
2022-08-29T21:37:29.943Z,101316.63
2022-08-29T21:40:44.099Z,101314.97
2022-08-29T21:43:56.569Z,101323.19
2022-08-29T21:47:02.945Z,101330.44
2022-08-29T21:50:09.124Z,101317.56
2022-08-29T21:53:15.652Z,101319.59
2022-08-29T21:56:21.671Z,101321.03
2022-08-29T21:59:35.924Z,101325.31
2022-08-29T22:02:42.418Z,101324.00
2022-08-29T22:05:49.324Z,101326.09
2022-08-29T22:08:55.933Z,101329.97
2022-08-29T22:12:02.278Z,101330.34
2022-08-29T22:15:28.137Z,101330.72
2022-08-29T22:18:34.577Z,101323.88
2022-08-29T22:21:40.624Z,101325.94
2022-08-29T22:24:46.862Z,101328.81
2022-08-29T22:27:52.854Z,101327.53
2022-08-29T22:30:59.691Z,101333.25
2022-08-29T22:34:08.574Z,101333.63
2022-08-29T22:37:14.987Z,101329.69
2022-08-29T22:40:30.462Z,101339.59
2022-08-29T22:43:36.802Z,101335.41
2022-08-29T22:46:43.157Z,101329.59
2022-08-29T22:49:49.725Z,101340.31
2022-08-29T22:52:57.234Z,101331.00
2022-08-29T22:56:10.775Z,101332.03
2022-08-29T22:59:22.713Z,101333.41
2022-08-29T23:02:29.186Z,101337.47
2022-08-29T23:05:37.061Z,101329.78
2022-08-29T23:08:42.910Z,101336.19
2022-08-29T23:11:48.545Z,101334.91
2022-08-29T23:14:54.267Z,101337.78
2022-08-29T23:18:00.225Z,101334.63
2022-08-29T23:21:06.614Z,101332.94
2022-08-29T23:24:13.881Z,101335.97
2022-08-29T23:27:20.334Z,101331.00
2022-08-29T23:30:26.959Z,101340.44
2022-08-29T23:33:32.892Z,101342.28
2022-08-29T23:36:39.080Z,101352.34
2022-08-29T23:39:44.731Z,101346.34
2022-08-29T23:42:50.633Z,101341.16
2022-08-29T23:45:56.638Z,101345.06
2022-08-29T23:49:05.713Z,101343.56
2022-08-29T23:52:13.531Z,101341.06
2022-08-29T23:55:19.864Z,101343.94
2022-08-29T23:58:26.339Z,101346.81
